Startpagina
METAR-TAF:

METAR-TAF

Vliegvelden :

Vliegbasis Kleine-Brogel

Peer, België

breedte: 51-10N, lengte: 005-28E, hoogte: 55 m

Actueel weer

Dit bericht is 1 uur en het 0 minuten geleden gemaakt, om 07:25 UTC
Wind 8 kt uit het zuidwesten
Temperatuur 17°C
Vochtigheid 88%
Druk 1024 hPa

METAR: EBBL 190725Z AUTO 23008KT //// BKN012/// OVC032/// 17/15 Q1024 GRN

Tijdstip: 10:25 (08:25 UTC)

Verwachting

Dit bericht is 46 minuten geleden gemaakt, om 07:39 UTC
Verwachting geldig van 19 om 07 UTC tot 19 om 16 UTC
Wind 8 kt uit het zuidwesten
Zicht 10 km of meer
Verspreide wolken op 1000 ft
Gebroken wolken op 3500 ft
Tijdelijke
van 19 om 07 UTC tot 19 om 11 UTC
Weinig wolken op 1000 ft
Gebroken wolken op 3500 ft
Wijzigt naar
van 19 om 09 UTC tot 19 om 11 UTC
Verspreide wolken op 1500 ft
Gebroken wolken op 3500 ft

TAF: EBBL 190739Z 1907/1916 23008KT 9999 SCT010 BKN035 TEMPO 1907/1911 FEW010 BKN035 BECMG 1909/1911 SCT015 BKN035

Waarnemingen en weersverwachtingen van meer dan 4000 vliegvelden (METAR en TAF).

De beschikbare stations zijn de gele en rode punten op de kaart.

Ga met uw muis naar het station om de naam te zien.

Klik dan om waarnemingen en weersverwachtingen te zien.

kaart wijzigen: klik op de groene knoppen met een zwart kruis om in te zoomen, op de groene knop met een streepje om uit te zoomen of op de groene pijlen voor aangrenzende kaarten.


METAR-TAF: